< < Back
Terminal Aerodrome Forecast


Current Version              Previous Versions:   1  2  3  4  5  6  7  8  9  

Terminal Aerodrome Forecast

789
FTUS42 KFFC 041121
TAFMCN
TAF
KMCN 041121Z 0412/0512 14003KT P6SM SCT250
     FM041700 28005KT P6SM SCT040
     FM050200 20003KT P6SM FEW090 FEW250=



Latest METAR

775
SAUS80 KWBC 051000 RRA
MTRMCN
METAR KMCN 050953Z AUTO 00000KT 9SM FEW080 23/22 A3003 RMK AO2 SLP161
T02330222 TSNO


USA.gov is the U.S. government's official web portal to all federal, state and local government web resources and services.